»·PEaware :: SKW5753 KRDD-KSEA

SKW5753 :: KRDD-KSEA

FLIGHT INFORMATION

Flight Status: Arrived
Operator:
SkyWest Airlines
More flights by this operator :: More flights under this callsign
Pilot: Anonymous 10620 (10620)
Aircraft: CANADAIR CL-600 CRJ-200
(CRJ2)
More flights by this aircraft type
Origin: KRDD Redding Mun
United States
Destination: KSEA Seattle-Tacoma Intl
United States
More flights between these airports :: More routes between these airports
Route: SHA3 LMT HAWKZ7
File this flight plan on PilotEdge
Remarks:
Altitude:
(Current/Filed)
32,000ft
Speed:
(Current/Filed)
385kts
Departed: 12-Aug-19 07:51 PM
Arrived: 12-Aug-19 08:58 PM
Distance/Time
Traveled:
416nm/1:06
Distance/Time
To Go:
Arrived

Flight Plot

Page will automatically refresh every two minutes.

Flight plan parsing failed; only flown route is shown


Map Options




Map Legend


Flown Route
Filed Route
Departure Airport
Arrival Airport
Navaid (VOR, NDB)
Fix

Horizontal Profiles

Position Reports

Time Latitude Longitude Heading Altitude Ground
Speed
12-Aug-19 19:27 40.505777 -122.298932 315 495ft 0kts
12-Aug-19 19:28 40.505777 -122.298932 315 495ft 0kts
12-Aug-19 19:29 40.505777 -122.298932 315 495ft 0kts
12-Aug-19 19:30 40.505778 -122.298932 315 495ft 0kts
12-Aug-19 19:31 40.505777 -122.298932 315 495ft 0kts
12-Aug-19 19:32 40.505777 -122.298932 315 495ft 0kts
12-Aug-19 19:33 40.505777 -122.298932 315 495ft 0kts
12-Aug-19 19:34 40.505777 -122.298932 315 495ft 0kts
12-Aug-19 19:35 40.505777 -122.298932 315 495ft 0kts
12-Aug-19 19:36 40.505777 -122.298932 315 495ft 0kts
12-Aug-19 19:37 40.505777 -122.298932 315 495ft 0kts
12-Aug-19 19:38 40.505777 -122.298932 315 495ft 0kts
12-Aug-19 19:39 40.505780 -122.298935 315 495ft 0kts
12-Aug-19 19:40 40.505505 -122.298576 315 495ft 2kts
12-Aug-19 19:41 40.505265 -122.298340 354 494ft 0kts
12-Aug-19 19:42 40.505265 -122.298340 354 494ft 0kts
12-Aug-19 19:43 40.505273 -122.298341 354 494ft 0kts
12-Aug-19 19:44 40.507678 -122.298105 44 496ft 7kts
12-Aug-19 19:45 40.509482 -122.296333 2 497ft 14kts
12-Aug-19 19:46 40.513063 -122.296295 0 500ft 14kts
12-Aug-19 19:47 40.519187 -122.296282 0 504ft 23kts
12-Aug-19 19:48 40.520251 -122.295898 79 504ft 6kts
12-Aug-19 19:49 40.519915 -122.294838 181 503ft 0kts
12-Aug-19 19:50 40.498776 -122.294750 178 838ft 164kts
12-Aug-19 19:51 40.452041 -122.292130 178 3608ft 178kts
12-Aug-19 19:52 40.421050 -122.237954 74 5543ft 293kts
12-Aug-19 19:53 40.486745 -122.186294 11 10605ft 297kts
12-Aug-19 19:54 40.570564 -122.160929 8 13949ft 351kts
12-Aug-19 19:55 40.668761 -122.134850 8 18315ft 372kts
12-Aug-19 19:56 40.773028 -122.105825 8 22111ft 396kts
12-Aug-19 19:57 40.883187 -122.074166 8 25516ft 419kts
12-Aug-19 19:58 40.999715 -122.039891 8 28535ft 443kts
12-Aug-19 19:59 41.120591 -122.002039 8 31034ft 472kts
12-Aug-19 20:00 41.253694 -121.958519 8 32258ft 516kts
12-Aug-19 20:01 41.392261 -121.913618 8 32177ft 510kts
12-Aug-19 20:02 41.529941 -121.868727 8 32190ft 511kts
12-Aug-19 20:03 41.668073 -121.823570 8 32215ft 512kts
12-Aug-19 20:04 41.806137 -121.778277 8 32244ft 513kts
12-Aug-19 20:05 41.944865 -121.733868 2 32237ft 509kts
12-Aug-19 20:06 42.084944 -121.715082 355 32243ft 503kts
12-Aug-19 20:07 42.220843 -121.742611 344 32244ft 494kts
12-Aug-19 20:08 42.356534 -121.773672 345 32243ft 495kts
12-Aug-19 20:09 42.492448 -121.804678 345 32243ft 495kts
12-Aug-19 20:10 42.627977 -121.835744 345 32242ft 495kts
12-Aug-19 20:11 42.763767 -121.866997 345 32243ft 495kts
12-Aug-19 20:12 42.899282 -121.898333 345 32243ft 495kts
12-Aug-19 20:13 43.034711 -121.929794 345 32240ft 493kts
12-Aug-19 20:14 43.169866 -121.961312 345 32222ft 492kts
12-Aug-19 20:15 43.304527 -121.992865 345 32205ft 491kts
12-Aug-19 20:16 43.439253 -122.024580 345 32205ft 491kts
12-Aug-19 20:17 43.573377 -122.056297 345 32231ft 491kts
12-Aug-19 20:18 43.707897 -122.088252 345 32231ft 491kts
12-Aug-19 20:19 43.842630 -122.120404 345 32231ft 491kts
12-Aug-19 20:20 43.976982 -122.152612 345 32231ft 491kts
12-Aug-19 20:21 44.111228 -122.184945 345 32224ft 491kts
12-Aug-19 20:22 44.245917 -122.217528 345 32214ft 491kts
12-Aug-19 20:23 44.380604 -122.250268 345 32189ft 491kts
12-Aug-19 20:24 44.515298 -122.283163 345 32149ft 491kts
12-Aug-19 20:25 44.649655 -122.316128 345 32153ft 491kts
12-Aug-19 20:26 44.784017 -122.349249 345 32162ft 491kts
12-Aug-19 20:27 44.918327 -122.382517 345 32164ft 491kts
12-Aug-19 20:28 45.052987 -122.416136 346 32166ft 492kts
12-Aug-19 20:29 45.188277 -122.449876 347 32161ft 495kts
12-Aug-19 20:30 45.324013 -122.483962 347 32153ft 496kts
12-Aug-19 20:31 45.460287 -122.518372 347 32152ft 496kts
12-Aug-19 20:32 45.596391 -122.552915 347 32153ft 496kts
12-Aug-19 20:33 45.729797 -122.586925 347 31461ft 475kts
12-Aug-19 20:34 45.857781 -122.618692 348 30129ft 462kts
12-Aug-19 20:35 45.984055 -122.650015 347 28429ft 462kts
12-Aug-19 20:36 46.110999 -122.680559 349 26639ft 463kts
12-Aug-19 20:37 46.235544 -122.705400 349 24884ft 462kts
12-Aug-19 20:38 46.363086 -122.723551 356 23087ft 461kts
12-Aug-19 20:39 46.491098 -122.728334 356 21280ft 447kts
12-Aug-19 20:40 46.610309 -122.732636 356 19110ft 409kts
12-Aug-19 20:41 46.719505 -122.736590 356 16889ft 372kts
12-Aug-19 20:42 46.811327 -122.703571 33 15505ft 340kts
12-Aug-19 20:43 46.883937 -122.623197 35 14293ft 327kts
12-Aug-19 20:44 46.960236 -122.553375 16 13192ft 317kts
12-Aug-19 20:45 47.043358 -122.516066 15 12033ft 307kts
12-Aug-19 20:46 47.124309 -122.492387 6 11163ft 303kts
12-Aug-19 20:47 47.208243 -122.477551 4 10102ft 306kts
12-Aug-19 20:48 47.290897 -122.464704 4 8909ft 282kts
12-Aug-19 20:49 47.365058 -122.455774 359 7779ft 253kts
12-Aug-19 20:50 47.434578 -122.455386 358 6514ft 251kts
12-Aug-19 20:51 47.504010 -122.454233 358 5011ft 246kts
12-Aug-19 20:52 47.571454 -122.448979 24 3525ft 243kts
12-Aug-19 20:53 47.591269 -122.364461 84 2970ft 204kts
12-Aug-19 20:54 47.566742 -122.302838 186 2467ft 208kts
12-Aug-19 20:55 47.514134 -122.307084 183 1459ft 164kts
12-Aug-19 20:56 47.472107 -122.307590 182 645ft 142kts
12-Aug-19 20:57 47.444090 -122.307957 176 432ft 20kts
12-Aug-19 20:58 47.441136 -122.306368 179 432ft 13kts
12-Aug-19 20:59 47.440046 -122.303019 63 432ft 15kts
12-Aug-19 21:00 47.439706 -122.299737 72 432ft 3kts
12-Aug-19 21:01 47.440183 -122.299045 47 432ft 0kts

Navigation Log

Ident Type
Flight plan parsing failed, navigation log unavailable